createdAt,value
2023-03-22T00:01:35.172Z,6.30
2023-03-22T00:04:03.660Z,6.17
2023-03-22T00:06:32.375Z,6.00
2023-03-22T00:09:00.758Z,5.57
2023-03-22T00:11:28.765Z,6.43
2023-03-22T00:13:58.956Z,5.67
2023-03-22T00:16:27.045Z,5.00
2023-03-22T00:18:55.319Z,5.87
2023-03-22T00:21:23.806Z,5.30
2023-03-22T00:23:52.056Z,5.13
2023-03-22T00:26:20.490Z,5.60
2023-03-22T00:28:48.817Z,5.50
2023-03-22T00:31:17.430Z,5.53
2023-03-22T00:33:45.900Z,5.70
2023-03-22T00:36:14.062Z,6.00
2023-03-22T00:38:43.426Z,6.40
2023-03-22T00:41:19.727Z,5.73
2023-03-22T00:43:48.417Z,6.07
2023-03-22T00:46:17.900Z,6.40
2023-03-22T00:51:13.383Z,7.15
2023-03-22T00:53:43.537Z,6.50
2023-03-22T00:56:16.575Z,7.63
2023-03-22T00:58:45.350Z,6.87
2023-03-22T01:01:15.485Z,8.10
2023-03-22T01:03:44.567Z,8.80
2023-03-22T01:06:12.437Z,8.93
2023-03-22T01:08:40.633Z,7.70
2023-03-22T01:11:09.309Z,8.07
2023-03-22T01:13:42.473Z,7.07
2023-03-22T01:16:11.654Z,7.17
2023-03-22T01:18:41.060Z,7.13
2023-03-22T01:21:09.972Z,6.60
2023-03-22T01:23:38.701Z,6.90
2023-03-22T01:26:07.292Z,7.67
2023-03-22T01:28:35.646Z,6.60
2023-03-22T01:31:04.559Z,8.17
2023-03-22T01:33:32.674Z,8.20
2023-03-22T01:36:01.172Z,6.60
2023-03-22T01:38:29.679Z,6.30
2023-03-22T01:40:58.224Z,5.53
2023-03-22T01:43:26.064Z,8.10
2023-03-22T01:45:55.110Z,7.37
2023-03-22T01:48:31.956Z,6.10
2023-03-22T01:51:05.109Z,6.57
2023-03-22T01:53:34.549Z,8.47
2023-03-22T01:56:03.746Z,6.40
2023-03-22T01:58:32.690Z,6.57
2023-03-22T02:01:01.235Z,6.93
2023-03-22T02:03:40.883Z,6.60
2023-03-22T02:06:09.542Z,6.97
2023-03-22T02:08:38.112Z,6.33
2023-03-22T02:11:06.846Z,6.60
2023-03-22T02:13:38.359Z,6.47
2023-03-22T02:16:08.198Z,5.93
2023-03-22T02:18:39.327Z,5.37
2023-03-22T02:21:11.940Z,6.90
2023-03-22T02:23:59.684Z,6.30
2023-03-22T02:26:29.531Z,7.20
2023-03-22T02:29:07.394Z,5.77
2023-03-22T02:31:40.332Z,6.23
2023-03-22T02:34:14.090Z,5.47
2023-03-22T02:37:00.040Z,6.00
2023-03-22T02:39:46.175Z,6.00
2023-03-22T02:42:25.160Z,8.53
2023-03-22T02:44:57.666Z,5.90
2023-03-22T02:47:27.684Z,8.93
2023-03-22T02:50:06.551Z,6.97
2023-03-22T02:52:36.853Z,7.13
2023-03-22T02:55:12.915Z,6.13
2023-03-22T02:57:48.840Z,7.90
2023-03-22T03:00:18.756Z,6.10
2023-03-22T03:02:52.464Z,4.63
2023-03-22T03:05:21.818Z,5.13
2023-03-22T03:07:51.783Z,6.30
2023-03-22T03:10:20.173Z,5.13
2023-03-22T03:12:48.821Z,4.47
2023-03-22T03:15:19.302Z,5.40
2023-03-22T03:18:06.694Z,4.33
2023-03-22T03:20:38.023Z,4.53
2023-03-22T03:23:16.572Z,6.10
2023-03-22T03:25:49.214Z,4.47
2023-03-22T03:28:36.670Z,6.47
2023-03-22T03:31:07.098Z,5.43
2023-03-22T03:33:36.535Z,4.93
2023-03-22T03:38:33.582Z,5.40
2023-03-22T03:41:02.848Z,4.77
2023-03-22T03:43:31.150Z,4.87
2023-03-22T03:45:59.741Z,4.57
2023-03-22T03:48:29.638Z,4.50
2023-03-22T03:50:58.252Z,5.50
2023-03-22T03:53:26.661Z,4.23
2023-03-22T03:55:54.978Z,6.07
2023-03-22T03:58:24.074Z,4.30
2023-03-22T04:00:52.540Z,4.23
2023-03-22T04:03:21.146Z,4.70
2023-03-22T04:05:49.236Z,5.73
2023-03-22T04:08:17.698Z,4.10
2023-03-22T04:10:47.565Z,4.53
2023-03-22T04:13:15.894Z,4.63
2023-03-22T04:15:43.762Z,3.97
2023-03-22T04:18:12.134Z,4.27
2023-03-22T04:20:41.861Z,3.70
2023-03-22T04:23:11.732Z,4.50
2023-03-22T04:25:40.025Z,4.00
2023-03-22T04:28:10.023Z,4.53
2023-03-22T04:30:39.432Z,3.70
2023-03-22T04:33:07.666Z,3.90
2023-03-22T04:35:37.348Z,4.00
2023-03-22T04:38:05.935Z,5.10
2023-03-22T04:40:36.152Z,4.80
2023-03-22T04:43:04.743Z,4.83
2023-03-22T04:45:32.545Z,5.10
2023-03-22T04:48:01.540Z,4.40
2023-03-22T04:50:30.180Z,4.80
2023-03-22T04:52:59.140Z,4.77
2023-03-22T04:55:27.499Z,5.30
2023-03-22T04:57:55.935Z,6.90
2023-03-22T05:00:24.117Z,4.90
2023-03-22T05:02:52.633Z,4.23
2023-03-22T05:05:20.968Z,5.70
2023-03-22T05:07:49.341Z,5.40
2023-03-22T05:10:17.684Z,7.20
2023-03-22T05:12:46.604Z,6.50
2023-03-22T05:15:15.308Z,5.00
2023-03-22T05:17:43.780Z,5.70
2023-03-22T05:20:12.546Z,5.53
2023-03-22T05:22:41.408Z,6.33
2023-03-22T05:25:11.079Z,8.23
2023-03-22T05:30:08.309Z,7.28
2023-03-22T05:32:38.057Z,8.47
2023-03-22T05:35:07.480Z,8.13
2023-03-22T05:37:36.258Z,8.77
2023-03-22T05:40:05.504Z,7.00
2023-03-22T05:42:33.527Z,6.20
2023-03-22T05:45:01.695Z,6.53
2023-03-22T05:47:30.390Z,6.00
2023-03-22T05:49:58.365Z,5.83
2023-03-22T05:52:26.926Z,6.63
2023-03-22T05:54:55.666Z,6.60
2023-03-22T05:57:23.860Z,7.40
2023-03-22T05:59:53.877Z,8.50
2023-03-22T06:02:21.990Z,7.10
2023-03-22T06:04:50.252Z,7.23
2023-03-22T06:07:19.042Z,6.40
2023-03-22T06:09:47.854Z,6.23
2023-03-22T06:12:16.767Z,6.83
2023-03-22T06:14:45.152Z,6.63
2023-03-22T06:17:13.693Z,8.40
2023-03-22T06:19:42.176Z,10.70
2023-03-22T06:22:11.149Z,7.77
2023-03-22T06:24:41.285Z,9.77
2023-03-22T06:27:10.146Z,9.27
2023-03-22T06:29:39.220Z,5.93
2023-03-22T06:32:08.019Z,7.47
2023-03-22T06:34:36.588Z,7.20
2023-03-22T06:37:05.059Z,6.80
2023-03-22T06:39:33.679Z,8.30
2023-03-22T06:42:01.638Z,6.70
2023-03-22T06:44:30.177Z,6.87
2023-03-22T06:46:58.409Z,7.33
2023-03-22T06:49:27.890Z,6.60
2023-03-22T06:54:23.487Z,6.90
2023-03-22T06:56:52.154Z,6.40
2023-03-22T06:59:20.747Z,6.00
2023-03-22T07:01:49.218Z,7.13
2023-03-22T07:04:17.690Z,6.93
2023-03-22T07:06:46.191Z,6.37
2023-03-22T07:09:16.332Z,7.93
2023-03-22T07:11:44.460Z,7.33
2023-03-22T07:14:12.479Z,7.33
2023-03-22T07:16:41.022Z,7.40
2023-03-22T07:19:09.611Z,6.90
2023-03-22T07:21:38.094Z,6.80
2023-03-22T07:24:08.329Z,6.83
2023-03-22T07:26:38.674Z,7.40
2023-03-22T07:29:06.573Z,7.33
2023-03-22T07:31:38.499Z,6.03
2023-03-22T07:34:07.132Z,5.97
2023-03-22T07:36:35.741Z,7.50
2023-03-22T07:39:04.742Z,7.37
2023-03-22T07:41:32.956Z,9.13
2023-03-22T07:44:15.271Z,7.47
2023-03-22T07:46:31.381Z,8.10
2023-03-22T07:48:59.858Z,7.80
2023-03-22T07:51:28.479Z,8.87
2023-03-22T07:53:56.352Z,7.10
2023-03-22T07:56:40.517Z,7.17
2023-03-22T07:59:09.604Z,8.17
2023-03-22T08:01:38.251Z,7.67
2023-03-22T08:04:06.463Z,8.20
2023-03-22T08:06:36.575Z,9.43
2023-03-22T08:09:06.283Z,8.23
2023-03-22T08:11:34.506Z,10.33
2023-03-22T08:14:03.153Z,9.83
2023-03-22T08:16:31.622Z,12.40
2023-03-22T08:19:00.278Z,9.37
2023-03-22T08:21:29.147Z,11.10
2023-03-22T08:23:57.454Z,11.20
2023-03-22T08:26:27.222Z,11.67
2023-03-22T08:28:56.881Z,8.10
2023-03-22T08:31:25.507Z,9.33
2023-03-22T08:33:54.426Z,10.93
2023-03-22T08:36:26.206Z,11.20
2023-03-22T08:38:54.609Z,11.17
2023-03-22T08:41:24.452Z,13.03
2023-03-22T08:43:52.396Z,11.13
2023-03-22T08:46:21.242Z,11.33
2023-03-22T08:48:50.515Z,10.90
2023-03-22T08:51:20.577Z,11.03
2023-03-22T08:53:49.473Z,10.27
2023-03-22T08:56:17.416Z,10.97
2023-03-22T08:58:46.702Z,10.27
2023-03-22T09:03:42.363Z,12.90
2023-03-22T09:06:11.758Z,10.87
2023-03-22T09:11:08.158Z,12.73
2023-03-22T09:13:36.625Z,11.00
2023-03-22T09:16:05.971Z,11.07
2023-03-22T09:18:34.528Z,8.47
2023-03-22T09:21:02.992Z,13.70
2023-03-22T09:23:32.706Z,9.83
2023-03-22T09:26:02.447Z,9.30
2023-03-22T09:28:31.901Z,9.83
2023-03-22T09:33:27.446Z,10.50
2023-03-22T09:35:57.494Z,8.23
2023-03-22T09:38:25.446Z,8.90
2023-03-22T09:40:56.953Z,8.67
2023-03-22T09:43:25.416Z,11.70
2023-03-22T09:45:54.956Z,13.20
2023-03-22T09:48:24.869Z,14.17
2023-03-22T09:50:54.906Z,12.53
2023-03-22T09:53:24.702Z,14.17
2023-03-22T09:55:57.049Z,13.23
2023-03-22T09:58:32.296Z,11.73
2023-03-22T10:01:02.746Z,10.73
2023-03-22T10:03:50.027Z,9.53
2023-03-22T10:06:26.044Z,8.73
2023-03-22T10:09:08.434Z,8.93
2023-03-22T10:11:42.420Z,8.77
2023-03-22T10:14:13.098Z,8.27
2023-03-22T10:16:41.701Z,7.60
2023-03-22T10:19:11.617Z,8.33
2023-03-22T10:21:40.207Z,8.37
2023-03-22T10:24:12.836Z,9.20
2023-03-22T10:26:43.012Z,8.23
2023-03-22T10:29:29.973Z,8.80
2023-03-22T10:31:59.699Z,8.53
2023-03-22T10:34:31.378Z,9.77
2023-03-22T10:37:01.784Z,8.70
2023-03-22T10:39:31.807Z,11.10
2023-03-22T10:42:01.710Z,8.30
2023-03-22T10:44:31.607Z,7.10
2023-03-22T10:47:01.607Z,6.97
2023-03-22T10:49:31.590Z,6.70
2023-03-22T10:52:02.092Z,7.27
2023-03-22T10:54:30.872Z,7.60
2023-03-22T10:56:59.257Z,6.53
2023-03-22T10:59:51.803Z,6.87
2023-03-22T11:02:22.255Z,5.17
2023-03-22T11:04:55.286Z,4.10
2023-03-22T11:07:31.444Z,4.40
2023-03-22T11:10:01.042Z,6.10
2023-03-22T11:12:29.588Z,7.77
2023-03-22T11:14:58.071Z,9.70
2023-03-22T11:17:26.928Z,14.87
2023-03-22T11:20:02.140Z,12.37
2023-03-22T11:22:38.019Z,15.97
2023-03-22T11:25:20.540Z,8.30
2023-03-22T11:27:56.997Z,24.67
2023-03-22T11:30:29.402Z,10.13
2023-03-22T11:33:09.596Z,13.73
2023-03-22T11:35:39.380Z,8.33
2023-03-22T11:40:36.880Z,8.58
2023-03-22T11:43:13.104Z,6.77
2023-03-22T11:45:43.106Z,6.37
2023-03-22T11:48:16.697Z,5.33
2023-03-22T11:50:46.939Z,6.67
2023-03-22T11:53:17.185Z,7.27
2023-03-22T11:55:46.913Z,7.00
2023-03-22T11:58:28.827Z,5.40
2023-03-22T12:00:58.928Z,4.47
2023-03-22T12:03:39.516Z,4.97
2023-03-22T12:06:09.662Z,6.40
2023-03-22T12:08:55.854Z,4.57
2023-03-22T12:11:34.908Z,5.50
2023-03-22T12:14:04.782Z,5.33
2023-03-22T12:16:34.893Z,6.43
2023-03-22T12:19:07.824Z,6.33
2023-03-22T12:21:36.407Z,9.90
2023-03-22T12:24:05.401Z,6.77
2023-03-22T12:26:35.657Z,6.17
2023-03-22T12:29:08.003Z,5.20
2023-03-22T12:31:43.590Z,8.77
2023-03-22T12:36:39.902Z,9.15
2023-03-22T12:39:09.572Z,7.17
2023-03-22T12:41:39.484Z,7.57
2023-03-22T12:44:12.620Z,8.47
2023-03-22T12:46:52.430Z,8.43
2023-03-22T12:49:22.494Z,12.53
2023-03-22T12:51:52.294Z,11.13
2023-03-22T12:54:22.051Z,9.80
2023-03-22T12:56:51.655Z,8.93
2023-03-22T12:59:21.331Z,9.37
2023-03-22T13:01:52.443Z,7.33
2023-03-22T13:04:30.271Z,7.37
2023-03-22T13:07:00.165Z,8.47
2023-03-22T13:09:41.032Z,9.80
2023-03-22T13:12:19.913Z,8.07
2023-03-22T13:14:52.675Z,8.70
2023-03-22T13:17:28.502Z,7.53
2023-03-22T13:20:06.456Z,10.53
2023-03-22T13:22:39.349Z,7.83
2023-03-22T13:25:16.586Z,11.87
2023-03-22T13:27:57.787Z,6.57
2023-03-22T13:30:27.901Z,8.43
2023-03-22T13:33:06.039Z,6.50
2023-03-22T13:35:49.230Z,8.13
2023-03-22T13:38:23.498Z,7.50
2023-03-22T13:40:54.055Z,8.57
2023-03-22T13:43:30.109Z,8.37
2023-03-22T13:46:00.305Z,9.80
2023-03-22T13:48:30.746Z,11.50
2023-03-22T13:51:00.259Z,16.63
2023-03-22T13:53:34.860Z,13.13
2023-03-22T13:56:05.560Z,11.83
2023-03-22T13:58:36.329Z,14.47
2023-03-22T14:01:07.122Z,15.17
2023-03-22T14:03:37.474Z,11.20
2023-03-22T14:06:07.304Z,12.80
2023-03-22T14:08:35.908Z,10.07
2023-03-22T14:11:05.908Z,11.13
2023-03-22T14:13:35.907Z,14.47
2023-03-22T14:16:05.738Z,12.63
2023-03-22T14:18:36.979Z,12.17
2023-03-22T14:21:07.147Z,10.33
